Anna, Texas
Current Conditions -  °F | °C
As of 1:53 AM on Saturday 01 Nov 2014 (Local Time) from KTKI Reporting Station
Clear Clear  
Wind Chill: 35°   Ceiling: Unl
Heat Index: 40°   Visibility: 10mi
Dew Point: 30°   Wind: 7mph
Humidity: 68%   Direction: 20°NNE
Pressure: 30.37"   Gusts: NA
Location:  33.35°N, 96.55°W
Report Text: KTKI 010653Z AUTO 02006KT 10SM CLR 04/M01 A3037 RMK AO2 SLP293 T00441011
Loading
Personal Weather Stations






























Interactive Weather Map
Tropical Storm Tracking
New forecast layout! Learn more

10-Day Weather Forecast

Advertisements
Track Severe Weather on mobile